Time;durP1;ratioP1;P1;durP2;ratioP2;P2;SDS_P1;SDS_P2;PMS_P1;PMS_P2;Temp;Humidity;BMP_temperature;BMP_pressure;BME280_temperature;BME280_humidity;BME280_pressure;Samples;Min_cycle;Max_cycle;Signal;HPM_P1;HPM_P2
2023/03/13 00:01:54;;;;;;;1999.90;999.90;;;;;;;2.16;100.00;98114.59;5105231;28;20111;-84
2023/03/13 00:04:19;;;;;;;1999.90;999.90;;;;;;;2.17;100.00;98110.03;5105847;28;20035;-83
2023/03/13 00:06:45;;;;;;;1999.90;999.90;;;;;;;2.23;100.00;98119.03;5104034;28;20020;-85
2023/03/13 00:09:12;;;;;;;1999.90;999.90;;;;;;;2.31;100.00;98116.81;5104776;28;20028;-83
2023/03/13 00:11:38;;;;;;;1999.90;999.90;;;;;;;2.26;100.00;98115.84;5104838;28;20038;-85
2023/03/13 00:14:05;;;;;;;1999.90;999.90;;;;;;;2.25;100.00;98127.72;5105684;28;20048;-83
2023/03/13 00:16:30;;;;;;;1999.90;999.90;;;;;;;2.24;100.00;98120.69;5104970;28;20043;-85
2023/03/13 00:18:57;;;;;;;1999.90;999.90;;;;;;;2.13;100.00;98123.16;5106164;28;20044;-84
2023/03/13 00:21:25;;;;;;;1999.90;999.90;;;;;;;2.14;100.00;98130.22;5104764;28;20464;-80
2023/03/13 00:23:51;;;;;;;1999.90;999.90;;;;;;;2.14;100.00;98130.22;5103276;28;20035;-82
2023/03/13 00:26:19;;;;;;;1999.90;999.90;;;;;;;2.10;100.00;98129.03;5101874;28;20020;-83
2023/03/13 00:28:45;;;;;;;1999.90;999.90;;;;;;;2.02;100.00;98134.81;5104339;28;20046;-84
2023/03/13 00:31:13;;;;;;;1999.90;999.90;;;;;;;2.05;100.00;98131.63;5104208;28;20467;-81
2023/03/13 00:33:42;;;;;;;1999.90;999.90;;;;;;;2.05;100.00;98128.94;5104026;28;20032;-82
2023/03/13 00:36:13;;;;;;;1999.90;999.90;;;;;;;2.22;100.00;98125.50;5102773;28;20535;-84
2023/03/13 00:38:39;;;;;;;1999.90;999.90;;;;;;;2.21;100.00;98131.94;5105196;28;20031;-87
2023/03/13 00:41:11;;;;;;;1999.90;999.90;;;;;;;2.13;100.00;98136.66;5104370;28;20051;-81
2023/03/13 00:43:37;;;;;;;1999.90;999.90;;;;;;;2.08;100.00;98130.34;5103058;28;20072;-78
2023/03/13 00:46:03;;;;;;;1999.90;999.90;;;;;;;2.00;100.00;98120.75;5102659;28;20020;-80
2023/03/13 00:48:28;;;;;;;1999.90;999.90;;;;;;;1.94;100.00;98129.75;5103053;28;20039;-85
2023/03/13 00:50:54;;;;;;;1999.90;999.90;;;;;;;1.90;100.00;98134.00;5100248;28;20032;-82
2023/03/13 00:53:19;;;;;;;1999.90;999.90;;;;;;;1.98;100.00;98133.63;5097381;28;20396;-83
2023/03/13 00:56:02;;;;;;;1999.90;999.90;;;;;;;1.92;100.00;98123.78;5096893;28;20053;-85
2023/03/13 00:58:29;;;;;;;1999.90;999.90;;;;;;;1.89;100.00;98124.25;5099598;28;20499;-84
2023/03/13 01:00:55;;;;;;;1999.90;999.90;;;;;;;1.74;100.00;98118.53;5099907;28;20027;-84
2023/03/13 01:03:25;;;;;;;1999.90;999.90;;;;;;;1.85;100.00;98106.91;5100808;28;20032;-83
2023/03/13 01:05:58;;;;;;;1999.90;999.90;;;;;;;1.77;100.00;98118.06;5100785;28;20032;-80
2023/03/13 01:08:24;;;;;;;1999.90;999.90;;;;;;;1.71;100.00;98105.50;5100893;28;20032;-87
2023/03/13 01:10:50;;;;;;;1999.90;999.90;;;;;;;1.74;100.00;98096.94;5099982;28;20024;-84
2023/03/13 01:13:15;;;;;;;1999.90;999.90;;;;;;;1.77;100.00;98106.44;5098294;28;20067;-83
2023/03/13 01:15:41;;;;;;;1999.90;999.90;;;;;;;1.68;100.00;98099.78;5099706;28;20031;-82
2023/03/13 01:18:06;;;;;;;1999.90;999.90;;;;;;;1.74;100.00;98105.03;5097730;28;20012;-82
2023/03/13 01:20:31;;;;;;;1999.90;999.90;;;;;;;1.73;100.00;98111.47;5097183;28;20034;-83
2023/03/13 01:22:57;;;;;;;1999.90;999.90;;;;;;;1.70;100.00;98106.56;5096941;28;20043;-86
2023/03/13 01:25:22;;;;;;;1999.90;999.90;;;;;;;1.70;100.00;98106.56;5095037;28;20457;-83
2023/03/13 01:27:47;;;;;;;1999.90;999.90;;;;;;;1.67;100.00;98098.13;5094523;28;20027;-85
2023/03/13 01:30:13;;;;;;;1999.90;999.90;;;;;;;1.67;100.00;98098.94;5095911;28;20055;-83
2023/03/13 01:32:38;;;;;;;1999.90;999.90;;;;;;;1.61;100.00;98099.88;5095465;28;20111;-84
2023/03/13 01:35:04;;;;;;;1999.90;999.90;;;;;;;1.63;100.00;98092.38;5095417;28;20028;-84
2023/03/13 01:37:29;;;;;;;1999.90;999.90;;;;;;;1.68;100.00;98092.50;5096508;28;20030;-87
2023/03/13 01:39:55;;;;;;;1999.90;999.90;;;;;;;1.69;100.00;98091.47;5095806;28;20024;-81
2023/03/13 01:42:20;;;;;;;1999.90;999.90;;;;;;;1.60;100.00;98099.06;5095339;28;20024;-84
2023/03/13 01:44:51;;;;;;;1999.90;999.90;;;;;;;1.67;100.00;98098.94;5094940;28;20059;-82
2023/03/13 01:47:16;;;;;;;1999.90;999.90;;;;;;;1.63;100.00;98100.47;5098275;28;20119;-83
2023/03/13 01:49:43;;;;;;;1999.90;999.90;;;;;;;1.68;100.00;98089.81;5099530;28;20522;-81
2023/03/13 01:52:19;;;;;;;1999.90;999.90;;;;;;;1.67;100.00;98098.94;5100969;28;20020;-81
2023/03/13 01:54:59;;;;;;;1999.90;999.90;;;;;;;1.50;100.00;98098.81;5099565;28;20081;-84
2023/03/13 01:57:32;;;;;;;1999.90;999.90;;;;;;;1.43;100.00;98094.63;5100763;28;20028;-84
2023/03/13 02:00:15;;;;;;;1999.90;999.90;;;;;;;1.45;100.00;98092.50;5098370;28;20084;-83
2023/03/13 02:02:45;;;;;;;1999.90;999.90;;;;;;;1.44;100.00;98088.19;5097305;28;20046;-83
2023/03/13 02:05:13;;;;;;;1999.90;999.90;;;;;;;1.46;100.00;98088.75;5103284;28;20069;-84
2023/03/13 02:07:47;;;;;;;1999.90;999.90;;;;;;;1.45;100.00;98079.03;5101577;28;20041;-85
2023/03/13 02:10:15;;;;;;;1999.90;999.90;;;;;;;1.37;100.00;98079.38;5098344;28;20024;-85
2023/03/13 02:12:41;;;;;;;1999.90;999.90;;;;;;;1.39;100.00;98079.97;5096955;28;20027;-83
2023/03/13 02:15:13;;;;;;;1999.90;999.90;;;;;;;1.28;100.00;98075.41;5097915;28;20044;-83
2023/03/13 02:17:41;;;;;;;1999.90;999.90;;;;;;;1.28;100.00;98087.00;5098751;28;20044;-83
2023/03/13 02:20:08;;;;;;;1999.90;999.90;;;;;;;1.29;100.00;98098.56;5101463;28;20039;-83
2023/03/13 02:22:48;;;;;;;1999.90;999.90;;;;;;;1.28;100.00;98097.78;5109285;28;20016;-83
2023/03/13 02:25:22;;;;;;;1999.90;999.90;;;;;;;1.31;100.00;98091.09;5108910;28;20024;-85
2023/03/13 02:27:57;;;;;;;1999.90;999.90;;;;;;;1.30;100.00;98075.97;5108551;28;20025;-84
2023/03/13 02:30:23;;;;;;;1999.90;999.90;;;;;;;1.30;100.00;98070.59;5108914;28;20047;-83
2023/03/13 02:32:49;;;;;;;1999.90;999.90;;;;;;;1.34;100.00;98066.38;5108688;28;20036;-85
2023/03/13 02:35:18;;;;;;;1999.90;999.90;;;;;;;1.27;100.00;98060.28;5109862;28;20036;-86
2023/03/13 02:37:47;;;;;;;1999.90;999.90;;;;;;;1.23;100.00;98061.78;5107107;28;20045;-86
2023/03/13 02:40:16;;;;;;;1999.90;999.90;;;;;;;1.30;100.00;98059.81;5103821;28;20088;-84
2023/03/13 02:42:44;;;;;;;1999.90;999.90;;;;;;;1.27;100.00;98066.50;5102441;28;20020;-81
2023/03/13 02:45:13;;;;;;;1999.90;999.90;;;;;;;1.44;100.00;98062.03;5100843;28;20043;-82
2023/03/13 02:47:39;;;;;;;1999.90;999.90;;;;;;;1.33;100.00;98064.72;5103244;28;20012;-84
2023/03/13 02:50:05;;;;;;;1999.90;999.90;;;;;;;1.29;100.00;98074.31;5106517;28;20028;-84
2023/03/13 02:52:40;;;;;;;1999.90;999.90;;;;;;;1.21;100.00;98063.91;5110302;28;20027;-85
2023/03/13 02:55:11;;;;;;;1999.90;999.90;;;;;;;1.16;100.00;98037.66;5110080;28;20032;-84
2023/03/13 02:57:36;;;;;;;1999.90;999.90;;;;;;;1.27;100.00;98063.78;5108833;28;20029;-84
2023/03/13 03:00:05;;;;;;;1999.90;999.90;;;;;;;1.29;100.00;98055.47;5107961;28;20047;-84
2023/03/13 03:02:31;;;;;;;1999.90;999.90;;;;;;;1.21;100.00;98055.81;5107888;28;20036;-81
2023/03/13 03:04:57;;;;;;;1999.90;999.90;;;;;;;1.19;100.00;98055.25;5109768;28;20049;-80
2023/03/13 03:07:22;;;;;;;1999.90;999.90;;;;;;;1.05;100.00;98038.47;5109278;28;20236;-84
2023/03/13 03:09:47;;;;;;;1999.90;999.90;;;;;;;1.19;100.00;98057.94;5109238;28;20491;-83
2023/03/13 03:12:13;;;;;;;1999.90;999.90;;;;;;;1.23;100.00;98061.78;5102704;28;20044;-84
2023/03/13 03:14:38;;;;;;;1999.90;999.90;;;;;;;1.19;100.00;98044.47;5103081;28;20462;-82
2023/03/13 03:17:03;;;;;;;1999.90;999.90;;;;;;;1.22;100.00;98052.09;5103186;28;20024;-86
2023/03/13 03:19:29;;;;;;;1999.90;999.90;;;;;;;1.32;100.00;98052.31;5104571;28;20149;-81
2023/03/13 03:21:54;;;;;;;1999.90;999.90;;;;;;;1.32;100.00;98053.13;5107088;28;20047;-82
2023/03/13 03:24:20;;;;;;;1999.90;999.90;;;;;;;1.34;100.00;98055.59;5103874;28;20070;-82
2023/03/13 03:26:45;;;;;;;1999.90;999.90;;;;;;;1.34;100.00;98061.00;5099898;28;20032;-80
2023/03/13 03:29:11;;;;;;;1999.90;999.90;;;;;;;1.33;100.00;98062.84;5103206;28;20024;-81
2023/03/13 03:31:36;;;;;;;1999.90;999.90;;;;;;;1.33;100.00;98064.72;5105644;28;20032;-82
2023/03/13 03:34:02;;;;;;;1999.90;999.90;;;;;;;1.28;100.00;98064.63;5100658;28;20063;-83
2023/03/13 03:36:28;;;;;;;1999.90;999.90;;;;;;;1.37;100.00;98060.53;5099526;28;20442;-83
2023/03/13 03:38:53;;;;;;;1999.90;999.90;;;;;;;1.35;100.00;98057.22;5099201;28;20023;-82
2023/03/13 03:41:19;;;;;;;1999.90;999.90;;;;;;;1.34;100.00;98055.59;5097199;28;20040;-82
2023/03/13 03:43:46;;;;;;;1999.90;999.90;;;;;;;1.33;100.00;98053.94;5096741;28;20036;-83
2023/03/13 03:46:12;;;;;;;1999.90;999.90;;;;;;;1.26;100.00;98055.94;5097182;28;20020;-83
2023/03/13 03:48:38;;;;;;;1999.90;999.90;;;;;;;1.20;100.00;98059.56;5098348;28;20020;-83
2023/03/13 03:51:04;;;;;;;1999.90;999.90;;;;;;;1.08;100.00;98052.31;5098540;28;20024;-87
2023/03/13 03:53:31;;;;;;;1999.90;999.90;;;;;;;1.13;100.00;98056.19;5098843;28;20046;-85
2023/03/13 03:55:56;;;;;;;1999.90;999.90;;;;;;;1.26;100.00;98051.38;5097878;28;20040;-83
2023/03/13 03:58:22;;;;;;;1999.90;999.90;;;;;;;1.28;100.00;98067.31;5096903;28;20468;-84
2023/03/13 04:00:47;;;;;;;1999.90;999.90;;;;;;;1.31;100.00;98056.91;5096945;28;20023;-80
2023/03/13 04:03:13;;;;;;;1999.90;999.90;;;;;;;1.27;100.00;98055.72;5097261;28;20023;-82
2023/03/13 04:05:39;;;;;;;1999.90;999.90;;;;;;;1.17;100.00;98051.94;5097229;28;20028;-83
2023/03/13 04:08:06;;;;;;;1999.90;999.90;;;;;;;1.14;100.00;98055.94;5096491;28;20020;-82
2023/03/13 04:10:31;;;;;;;1999.90;999.90;;;;;;;1.14;100.00;98052.41;5097933;28;20040;-83
2023/03/13 04:12:57;;;;;;;1999.90;999.90;;;;;;;1.30;100.00;98059.81;5096013;28;20042;-84
2023/03/13 04:15:22;;;;;;;1999.90;999.90;;;;;;;1.30;100.00;98055.25;5096960;28;20028;-85
2023/03/13 04:17:47;;;;;;;1999.90;999.90;;;;;;;1.40;100.00;98043.88;5094268;28;20099;-83
2023/03/13 04:20:13;;;;;;;1999.90;999.90;;;;;;;1.45;100.00;98041.28;5087333;28;20480;-81
2023/03/13 04:22:39;;;;;;;1999.90;999.90;;;;;;;1.55;100.00;98052.31;5083005;28;20377;-79
2023/03/13 04:25:06;;;;;;;1999.90;999.90;;;;;;;1.50;100.00;98044.13;5071733;28;20499;-81
2023/03/13 04:27:32;;;;;;;1999.90;999.90;;;;;;;1.42;100.00;98052.53;5070045;28;20030;-78
2023/03/13 04:29:58;;;;;;;1999.90;999.90;;;;;;;1.47;100.00;98061.56;5073171;28;20028;-75
2023/03/13 04:32:24;;;;;;;1999.90;999.90;;;;;;;1.52;100.00;98059.00;5093138;28;20047;-78
2023/03/13 04:34:49;;;;;;;1999.90;999.90;;;;;;;1.55;100.00;98063.91;5091407;28;20118;-77
2023/03/13 04:37:14;;;;;;;1999.90;999.90;;;;;;;1.51;100.00;98056.53;5091295;28;20024;-77
2023/03/13 04:39:40;;;;;;;1999.90;999.90;;;;;;;1.36;100.00;98058.88;5091287;28;20028;-80
2023/03/13 04:42:05;;;;;;;1999.90;999.90;;;;;;;1.39;100.00;98053.00;5091134;28;20024;-80
2023/03/13 04:44:31;;;;;;;1999.90;999.90;;;;;;;1.53;100.00;98062.50;5091034;28;20020;-79
2023/03/13 04:46:56;;;;;;;1999.90;999.90;;;;;;;1.58;100.00;98068.00;5091254;28;20024;-78
2023/03/13 04:49:22;;;;;;;1999.90;999.90;;;;;;;1.47;100.00;98063.47;5090603;28;20028;-79
2023/03/13 04:51:47;;;;;;;1999.90;999.90;;;;;;;1.53;100.00;98062.50;5091749;28;20032;-78
2023/03/13 04:54:13;;;;;;;1999.90;999.90;;;;;;;1.45;100.00;98068.25;5090849;28;20028;-78
2023/03/13 04:56:38;;;;;;;1999.90;999.90;;;;;;;1.48;100.00;98073.16;5090472;28;20081;-80
2023/03/13 04:59:03;;;;;;;1999.90;999.90;;;;;;;1.39;100.00;98070.00;5091092;28;20030;-81
2023/03/13 05:01:29;;;;;;;1999.90;999.90;;;;;;;1.38;100.00;98075.66;5091097;28;20042;-83
2023/03/13 05:03:55;;;;;;;1999.90;999.90;;;;;;;1.45;100.00;98074.47;5091535;28;20035;-78
2023/03/13 05:06:20;;;;;;;1999.90;999.90;;;;;;;1.42;100.00;98068.72;5094090;28;20024;-79
2023/03/13 05:08:45;;;;;;;1999.90;999.90;;;;;;;1.44;100.00;98074.72;5090809;28;20051;-82
2023/03/13 05:11:11;;;;;;;1999.90;999.90;;;;;;;1.38;100.00;98072.94;5090615;28;20039;-77
2023/03/13 05:13:36;;;;;;;1999.90;999.90;;;;;;;1.45;100.00;98076.31;5089198;28;20048;-80
2023/03/13 05:16:02;;;;;;;1999.90;999.90;;;;;;;1.53;100.00;98073.28;5090691;28;20476;-76
2023/03/13 05:18:27;;;;;;;1999.90;999.90;;;;;;;1.40;100.00;98081.59;5091442;28;20411;-79
2023/03/13 05:20:53;;;;;;;1999.90;999.90;;;;;;;1.38;100.00;98083.72;5091916;28;20032;-80
2023/03/13 05:23:18;;;;;;;1999.90;999.90;;;;;;;1.43;100.00;98073.06;5075054;28;20078;-80
2023/03/13 05:25:44;;;;;;;1999.90;999.90;;;;;;;1.46;100.00;98059.94;5073224;28;20029;-83
2023/03/13 05:28:09;;;;;;;1999.90;999.90;;;;;;;1.55;100.00;98079.25;5080775;28;20016;-80
2023/03/13 05:30:34;;;;;;;1999.90;999.90;;;;;;;1.46;100.00;98059.94;5091041;28;20032;-78
2023/03/13 05:33:00;;;;;;;1999.90;999.90;;;;;;;1.37;100.00;98061.34;5090548;28;20044;-81
2023/03/13 05:35:25;;;;;;;1999.90;999.90;;;;;;;1.41;100.00;98062.50;5092474;28;20013;-82
2023/03/13 05:37:50;;;;;;;1999.90;999.90;;;;;;;1.45;100.00;98079.03;5094237;28;20035;-79
2023/03/13 05:40:16;;;;;;;1999.90;999.90;;;;;;;1.47;100.00;98076.94;5094833;28;20065;-76
2023/03/13 05:42:41;;;;;;;1999.90;999.90;;;;;;;1.52;100.00;98074.34;5099437;28;20028;-77
2023/03/13 05:45:08;;;;;;;1999.90;999.90;;;;;;;1.68;100.00;98064.72;5097918;28;20027;-81
2023/03/13 05:47:34;;;;;;;1999.90;999.90;;;;;;;1.59;100.00;98066.97;5099973;28;20391;-77
2023/03/13 05:49:59;;;;;;;1999.90;999.90;;;;;;;1.68;100.00;98080.91;5099238;28;20107;-79
2023/03/13 05:52:25;;;;;;;1999.90;999.90;;;;;;;1.74;100.00;98086.16;5096253;28;20436;-80
2023/03/13 05:54:51;;;;;;;1999.90;999.90;;;;;;;1.74;100.00;98071.88;5095262;28;20030;-82
2023/03/13 05:57:16;;;;;;;1999.90;999.90;;;;;;;1.74;100.00;98080.78;5097213;28;20035;-80
2023/03/13 05:59:41;;;;;;;1999.90;999.90;;;;;;;1.91;100.00;98083.59;5090588;28;20115;-81
2023/03/13 06:02:10;;;;;;;1999.90;999.90;;;;;;;1.88;100.00;98076.75;5090844;28;20036;-76
2023/03/13 06:04:35;;;;;;;1999.90;999.90;;;;;;;1.99;100.00;98078.63;5093953;28;20034;-76
2023/03/13 06:07:01;;;;;;;1999.90;999.90;;;;;;;2.08;100.00;98085.31;5090436;28;20036;-76
2023/03/13 06:09:26;;;;;;;1999.90;999.90;;;;;;;2.13;100.00;98077.31;5090023;28;20032;-77
2023/03/13 06:11:52;;;;;;;1999.90;999.90;;;;;;;2.26;100.00;98078.09;5089982;28;20495;-79
2023/03/13 06:14:17;;;;;;;1999.90;999.90;;;;;;;2.33;100.00;98078.78;5096061;28;20032;-79
2023/03/13 06:16:43;;;;;;;1999.90;999.90;;;;;;;2.34;100.00;98083.13;5081173;28;20029;-76
2023/03/13 06:19:08;;;;;;;1999.90;999.90;;;;;;;2.37;100.00;98069.16;5070037;28;20469;-75
2023/03/13 06:21:33;;;;;;;1999.90;999.90;;;;;;;2.49;100.00;98072.63;5070281;28;20020;-76
2023/03/13 06:23:59;;;;;;;1999.90;999.90;;;;;;;2.46;100.00;98071.22;5069444;28;20071;-77
2023/03/13 06:26:24;;;;;;;1999.90;999.90;;;;;;;2.55;100.00;98072.47;5069449;28;20013;-76
2023/03/13 06:28:51;;;;;;;1999.90;999.90;;;;;;;2.74;100.00;98073.09;5069182;28;20016;-76
2023/03/13 06:31:16;;;;;;;1999.90;999.90;;;;;;;2.80;100.00;98080.22;5069758;28;20032;-75
2023/03/13 06:33:42;;;;;;;1999.90;999.90;;;;;;;2.75;100.00;98087.44;5071045;28;20082;-75
2023/03/13 06:36:08;;;;;;;1999.90;999.90;;;;;;;2.77;100.00;98088.81;5074553;28;20399;-76
2023/03/13 06:38:33;;;;;;;1999.90;999.90;;;;;;;2.76;100.00;98087.16;5076824;28;20027;-78
2023/03/13 06:40:59;;;;;;;1999.90;999.90;;;;;;;2.93;100.00;98088.03;5074572;28;20084;-77
2023/03/13 06:43:25;;;;;;;1999.90;999.90;;;;;;;2.97;100.00;98086.50;5073792;28;20016;-76
2023/03/13 06:45:50;;;;;;;1999.90;999.90;;;;;;;3.01;100.00;98084.91;5090375;28;20033;-77
2023/03/13 06:48:17;;;;;;;1999.90;999.90;;;;;;;3.10;100.00;98098.88;5094378;28;20070;-77
2023/03/13 06:50:42;;;;;;;1999.90;999.90;;;;;;;3.12;100.00;98092.16;5095412;28;20080;-79
2023/03/13 06:53:15;;;;;;;1999.90;999.90;;;;;;;3.20;100.00;98089.03;5093400;28;20028;-76
2023/03/13 06:55:40;;;;;;;1999.90;999.90;;;;;;;3.28;100.00;98090.53;5092717;28;20028;-76
2023/03/13 06:58:06;;;;;;;1999.90;999.90;;;;;;;3.32;100.00;98099.75;5093198;28;20381;-77
2023/03/13 07:00:33;;;;;;;1999.90;999.90;;;;;;;3.31;100.00;98092.75;5093499;28;20039;-76
2023/03/13 07:02:58;;;;;;;1999.90;999.90;;;;;;;3.40;100.00;98087.72;5093347;28;20028;-76
2023/03/13 07:05:23;;;;;;;1999.90;999.90;;;;;;;3.45;100.00;98085.94;5093473;28;20039;-77
2023/03/13 07:07:49;;;;;;;1999.90;999.90;;;;;;;3.53;100.00;98092.81;5093842;28;20027;-78
2023/03/13 07:10:14;;;;;;;1999.90;999.90;;;;;;;3.66;100.00;98089.78;5093838;28;20031;-77
2023/03/13 07:12:39;;;;;;;1999.90;999.90;;;;;;;3.72;100.00;98091.50;5093558;28;20115;-82
2023/03/13 07:15:06;;;;;;;1999.90;999.90;;;;;;;3.70;100.00;98097.13;5094001;28;20391;-77
2023/03/13 07:17:31;;;;;;;1999.90;999.90;;;;;;;3.61;100.00;98092.38;5093922;28;20035;-78
2023/03/13 07:19:56;;;;;;;1999.90;999.90;;;;;;;3.79;100.00;98092.13;5093624;28;20028;-81
2023/03/13 07:22:21;;;;;;;1999.90;999.90;;;;;;;3.86;100.00;98098.16;5096180;28;20172;-80
2023/03/13 07:24:47;;;;;;;1999.90;999.90;;;;;;;3.91;100.00;98092.84;5093399;28;20051;-83
2023/03/13 07:27:13;;;;;;;1999.90;999.90;;;;;;;4.09;100.00;98103.38;5091526;28;20042;-84
2023/03/13 07:29:38;;;;;;;1999.90;999.90;;;;;;;4.24;100.00;98090.03;5093343;28;20119;-81
2023/03/13 07:32:04;;;;;;;1999.90;999.90;;;;;;;4.19;100.00;98075.63;5092791;28;20031;-77
2023/03/13 07:34:29;;;;;;;1999.90;999.90;;;;;;;4.41;100.00;98102.72;5089308;28;20386;-85
2023/03/13 07:36:57;;;;;;;1999.90;999.90;;;;;;;4.66;100.00;98101.13;5092907;28;20464;-83
2023/03/13 07:39:23;;;;;;;1999.90;999.90;;;;;;;4.84;99.05;98106.19;5094470;28;20600;-86
2023/03/13 07:41:48;;;;;;;1999.90;999.90;;;;;;;5.08;96.67;98100.44;5094490;28;20020;-80
2023/03/13 07:44:13;;;;;;;1999.90;999.90;;;;;;;5.02;95.39;98105.00;5092970;28;20511;-77
2023/03/13 07:46:39;;;;;;;1999.90;999.90;;;;;;;5.19;94.50;98105.72;5092919;28;20020;-78
2023/03/13 07:49:04;;;;;;;1999.90;999.90;;;;;;;5.05;94.21;98103.69;5097576;28;20032;-84
2023/03/13 07:51:29;;;;;;;1999.90;999.90;;;;;;;4.97;94.11;98088.72;5096823;28;20092;-81
2023/03/13 07:53:55;;;;;;;1999.90;999.90;;;;;;;5.01;94.85;98092.53;5094449;28;20040;-80
2023/03/13 07:56:22;;;;;;;1999.90;999.90;;;;;;;5.27;93.92;98093.59;5092850;28;20027;-80
2023/03/13 07:58:49;;;;;;;1999.90;999.90;;;;;;;5.55;90.63;98081.59;5093078;28;20023;-81
2023/03/13 08:01:18;;;;;;;1999.90;999.90;;;;;;;5.72;89.51;98093.13;5093301;28;20035;-84
2023/03/13 08:03:45;;;;;;;1999.90;999.90;;;;;;;6.67;84.62;98092.84;5094163;28;20044;-82
2023/03/13 08:06:15;;;;;;;1999.90;999.90;;;;;;;7.58;80.67;98098.44;5093432;28;20107;-84
2023/03/13 08:08:41;;;;;;;1999.90;999.90;;;;;;;7.71;79.65;98092.44;5093873;28;20112;-81
2023/03/13 08:11:10;;;;;;;1999.90;999.90;;;;;;;7.70;78.83;98099.00;5093579;28;20139;-85
2023/03/13 08:13:36;;;;;;;1999.90;999.90;;;;;;;7.86;77.56;98089.69;5092897;28;20044;-84
2023/03/13 08:16:07;;;;;;;1999.90;999.90;;;;;;;7.68;77.73;98081.28;5093139;28;20070;-80
2023/03/13 08:18:34;;;;;;;1999.90;999.90;;;;;;;7.62;77.63;98082.38;5092609;28;20107;-78
2023/03/13 08:21:04;;;;;;;1999.90;999.90;;;;;;;7.66;77.70;98075.31;5094603;28;20040;-82
2023/03/13 08:23:30;;;;;;;1999.90;999.90;;;;;;;8.71;72.93;98089.78;5094072;28;20035;-87
2023/03/13 08:26:00;;;;;;;1999.90;999.90;;;;;;;9.06;69.33;98097.75;5094580;28;20089;-85
2023/03/13 08:28:25;;;;;;;1999.90;999.90;;;;;;;9.03;69.24;98092.88;5094355;28;20028;-86
2023/03/13 08:30:50;;;;;;;1999.90;999.90;;;;;;;8.06;72.04;98084.22;5094428;28;20124;-86
2023/03/13 08:33:16;;;;;;;1999.90;999.90;;;;;;;7.37;76.53;98081.28;5094428;28;20122;-88
2023/03/13 08:35:41;;;;;;;1999.90;999.90;;;;;;;7.57;75.99;98082.38;5094098;28;20058;-87
2023/03/13 08:38:07;;;;;;;1999.90;999.90;;;;;;;7.51;75.71;98076.13;5093420;28;20024;-84
2023/03/13 08:40:32;;;;;;;1999.90;999.90;;;;;;;7.51;76.28;98076.97;5093989;28;20032;-85
2023/03/13 08:42:57;;;;;;;1999.90;999.90;;;;;;;6.93;78.32;98070.09;5093951;28;20050;-84
2023/03/13 08:45:23;;;;;;;1999.90;999.90;;;;;;;6.95;79.39;98061.69;5094230;28;20024;-83
2023/03/13 08:47:52;;;;;;;1999.90;999.90;;;;;;;6.79;79.35;98074.41;5093989;28;20028;-80
2023/03/13 08:50:17;;;;;;;1999.90;999.90;;;;;;;6.95;79.22;98064.41;5094874;28;20024;-84
2023/03/13 08:52:43;;;;;;;1999.90;999.90;;;;;;;7.18;79.33;98066.59;5094355;28;20145;-85
2023/03/13 08:55:09;;;;;;;1999.90;999.90;;;;;;;7.34;78.66;98051.91;5094515;28;20024;-89
2023/03/13 08:57:34;;;;;;;1999.90;999.90;;;;;;;7.62;76.11;98060.59;5092682;28;20032;-87
2023/03/13 09:00:00;;;;;;;1999.90;999.90;;;;;;;7.84;74.57;98052.94;5094778;28;20043;-83
2023/03/13 09:02:25;;;;;;;1999.90;999.90;;;;;;;8.57;71.39;98062.28;5093975;28;20028;-80
2023/03/13 09:04:50;;;;;;;1999.90;999.90;;;;;;;9.92;65.00;98073.34;5092233;28;20024;-85
2023/03/13 09:07:16;;;;;;;1999.90;999.90;;;;;;;10.26;62.82;98061.53;5093492;28;20380;-87
2023/03/13 09:09:41;;;;;;;1999.90;999.90;;;;;;;10.87;60.72;98056.13;5093937;28;20028;-86
2023/03/13 09:12:07;;;;;;;1999.90;999.90;;;;;;;11.84;56.54;98054.34;5095153;28;20048;-85
2023/03/13 09:14:32;;;;;;;1999.90;999.90;;;;;;;11.25;58.11;98042.13;5093270;28;20044;-84
2023/03/13 09:16:58;;;;;;;1999.90;999.90;;;;;;;12.74;53.81;98046.28;5093400;28;20085;-85
2023/03/13 09:19:24;;;;;;;1999.90;999.90;;;;;;;12.96;51.92;98051.03;5093091;28;20105;-79
2023/03/13 09:21:50;;;;;;;1999.90;999.90;;;;;;;12.54;52.16;98049.44;5092489;28;20028;-82
2023/03/13 09:24:16;;;;;;;1999.90;999.90;;;;;;;12.14;53.54;98033.78;5094281;28;20040;-83
2023/03/13 09:26:41;;;;;;;1999.90;999.90;;;;;;;12.26;53.09;98032.16;5094834;28;20024;-81
2023/03/13 09:29:06;;;;;;;1999.90;999.90;;;;;;;11.72;54.39;98023.84;5092634;28;20383;-84
2023/03/13 09:31:32;;;;;;;1999.90;999.90;;;;;;;11.94;55.00;98026.75;5093851;28;20539;-82
2023/03/13 09:33:59;;;;;;;1999.90;999.90;;;;;;;13.28;51.23;98033.56;5097405;28;20032;-90
2023/03/13 09:36:25;;;;;;;1999.90;999.90;;;;;;;14.88;46.32;98035.88;5096065;28;20020;-84
2023/03/13 09:38:56;;;;;;;1999.90;999.90;;;;;;;15.97;43.19;98036.53;5093636;28;20036;-83
2023/03/13 09:42:03;;;;;;;1999.90;999.90;;;;;;;17.43;39.65;98035.78;5093747;28;20043;-83
2023/03/13 09:44:34;;;;;;;1999.90;999.90;;;;;;;17.67;37.74;98028.44;5072660;28;20055;-86
2023/03/13 09:47:06;;;;;;;1999.90;999.90;;;;;;;19.09;35.40;98020.22;5093808;28;20054;-85
2023/03/13 09:49:58;;;;;;;1999.90;999.90;;;;;;;16.45;39.21;98019.63;5094579;28;20074;-85
2023/03/13 09:52:25;;;;;;;1999.90;999.90;;;;;;;16.66;39.35;98025.25;5095231;28;20092;-81
2023/03/13 09:54:57;;;;;;;1999.90;999.90;;;;;;;17.14;38.96;98023.66;5094642;28;20020;-85
2023/03/13 09:57:32;;;;;;;1999.90;999.90;;;;;;;18.37;35.85;98012.72;5095377;28;20059;-85
2023/03/13 10:00:11;;;;;;;1999.90;999.90;;;;;;;18.01;36.49;98018.97;5097281;28;20039;-88
2023/03/13 10:02:37;;;;;;;1999.90;999.90;;;;;;;17.82;36.48;98007.66;5096206;28;20495;-81
2023/03/13 10:05:17;;;;;;;1999.90;999.90;;;;;;;18.26;36.20;98010.75;5094883;28;20072;-85
2023/03/13 10:07:43;;;;;;;1999.90;999.90;;;;;;;18.06;36.64;98017.97;5095022;28;20040;-79
2023/03/13 10:10:23;;;;;;;1999.90;999.90;;;;;;;18.94;34.75;98011.81;5098653;28;20034;-82
2023/03/13 10:12:56;;;;;;;1999.90;999.90;;;;;;;18.98;34.74;98004.44;5096589;28;20032;-84
2023/03/13 10:15:39;;;;;;;1999.90;999.90;;;;;;;19.69;34.20;98005.41;5099245;28;20123;-84
2023/03/13 10:18:21;;;;;;;1999.90;999.90;;;;;;;20.34;32.50;98005.97;5097703;28;20020;-85
2023/03/13 10:20:49;;;;;;;1999.90;999.90;;;;;;;20.58;31.79;97999.47;5098265;28;20020;-85
2023/03/13 10:23:20;;;;;;;1999.90;999.90;;;;;;;19.46;33.51;97992.41;5098854;28;20496;-82
2023/03/13 10:25:45;;;;;;;1999.90;999.90;;;;;;;18.32;35.21;97981.66;5099271;28;20036;-83
2023/03/13 10:28:14;;;;;;;1999.90;999.90;;;;;;;19.06;34.04;97984.88;5099276;28;20020;-81
2023/03/13 10:30:53;;;;;;;1999.90;999.90;;;;;;;19.08;34.54;97977.00;5098049;28;20495;-82
2023/03/13 10:33:22;;;;;;;1999.90;999.90;;;;;;;19.49;34.56;97972.28;5099643;28;20040;-80
2023/03/13 10:36:03;;;;;;;1999.90;999.90;;;;;;;19.14;34.35;97980.34;5098816;28;20028;-80
2023/03/13 10:38:33;;;;;;;1999.90;999.90;;;;;;;19.34;33.95;97976.59;5094962;28;20031;-81
2023/03/13 10:41:17;;;;;;;1999.90;999.90;;;;;;;19.22;34.13;97960.81;5096667;28;20119;-85
2023/03/13 10:43:54;;;;;;;1999.90;999.90;;;;;;;17.78;37.15;97967.97;5097477;28;20043;-83
2023/03/13 10:46:34;;;;;;;1999.90;999.90;;;;;;;19.97;33.84;97963.72;5097932;28;20059;-85
2023/03/13 10:49:02;;;;;;;1999.90;999.90;;;;;;;20.13;34.08;97961.78;5097445;28;20028;-82
2023/03/13 10:51:39;;;;;;;1999.90;999.90;;;;;;;20.36;33.47;97945.28;5097470;28;20036;-81
2023/03/13 10:54:14;;;;;;;1999.90;999.90;;;;;;;19.33;34.77;97949.22;5096455;28;20024;-78
2023/03/13 10:56:39;;;;;;;1999.90;999.90;;;;;;;20.28;34.20;97944.31;5097169;28;20115;-89